CSH4590 ZSXZ-ZPLJ
Flight info
| Callsign | CSH4590 |
|---|---|
| Flight time | N/A |
| Altitude | 32100 |
| Route | HFE R343 WHA A581 IDGAG W80 OPAMU W238 WESTI WLY W162 CEH |
| Aircraft | B738/M-SDE2E3FGHIM3RWY/EB1 |
Departure
| Time | N/A |
|---|---|
| Airport | Xuzhou Guanyin International Airport (ZSXZ) |
Arrival
| Time | 2026-05-04 04:01 |
|---|---|
| Airport | Lijiang Sanyi International Airport (ZPLJ) |
| Time | Latitude | Longitude | Altitude | Speed | Heading |
|---|---|---|---|---|---|
| 2026-05-04 03:41 | 29.44978 | 108.22601 | 32275 ft | 391 kts | 255° |
| 2026-05-04 03:41 | 29.44145 | 108.19627 | 32282 ft | 391 kts | 255° |
| 2026-05-04 03:42 | 29.36895 | 107.93888 | 32288 ft | 391 kts | 255° |
| 2026-05-04 03:42 | 29.23395 | 107.46530 | 32327 ft | 392 kts | 255° |
| 2026-05-04 03:43 | 29.09688 | 106.99156 | 32126 ft | 392 kts | 255° |
| 2026-05-04 03:43 | 28.95974 | 106.52437 | 32235 ft | 384 kts | 255° |
| 2026-05-04 03:44 | 28.82240 | 106.06265 | 32203 ft | 383 kts | 256° |
| 2026-05-04 03:44 | 28.68117 | 105.59525 | 32187 ft | 399 kts | 255° |
| 2026-05-04 03:44 | 28.60847 | 105.35744 | 32048 ft | 399 kts | 256° |
| 2026-05-04 03:45 | 28.53577 | 105.12067 | 32109 ft | 393 kts | 256° |
| 2026-05-04 03:45 | 28.39147 | 104.65559 | 32183 ft | 390 kts | 255° |
| 2026-05-04 03:46 | 28.24505 | 104.19004 | 32171 ft | 393 kts | 255° |
| 2026-05-04 03:46 | 28.17205 | 103.96058 | 32027 ft | 392 kts | 255° |
| 2026-05-04 03:46 | 28.09737 | 103.72627 | 31916 ft | 397 kts | 255° |
| 2026-05-04 03:46 | 28.02126 | 103.49240 | 32160 ft | 400 kts | 254° |
| 2026-05-04 03:47 | 27.94402 | 103.25233 | 31954 ft | 409 kts | 254° |
| 2026-05-04 03:47 | 27.86514 | 103.01158 | 32175 ft | 406 kts | 253° |
| 2026-05-04 03:47 | 27.78663 | 102.77355 | 32290 ft | 403 kts | 253° |
| 2026-05-04 03:48 | 27.63069 | 102.30353 | 32396 ft | 402 kts | 253° |
| 2026-05-04 03:48 | 27.47410 | 101.83796 | 32189 ft | 414 kts | 252° |
| 2026-05-04 03:48 | 27.43285 | 101.71701 | 32295 ft | 412 kts | 252° |
| 2026-05-04 03:49 | 27.39180 | 101.59655 | 32323 ft | 413 kts | 252° |
| 2026-05-04 03:49 | 27.35090 | 101.47672 | 30678 ft | 406 kts | 252° |
| 2026-05-04 03:49 | 27.31086 | 101.35988 | 28440 ft | 394 kts | 252° |
| 2026-05-04 03:49 | 27.27201 | 101.24677 | 26380 ft | 381 kts | 252° |
| 2026-05-04 03:50 | 27.23466 | 101.13834 | 24474 ft | 372 kts | 251° |
| 2026-05-04 03:50 | 27.19749 | 101.03074 | 22367 ft | 366 kts | 251° |
| 2026-05-04 03:50 | 27.16102 | 100.92549 | 20453 ft | 358 kts | 251° |
| 2026-05-04 03:50 | 27.12491 | 100.82145 | 18463 ft | 357 kts | 250° |
| 2026-05-04 03:51 | 27.08747 | 100.72267 | 17448 ft | 325 kts | 239° |
| 2026-05-04 03:51 | 27.03225 | 100.64793 | 16115 ft | 305 kts | 233° |
| 2026-05-04 03:51 | 26.99964 | 100.60247 | 15694 ft | 287 kts | 224° |
| 2026-05-04 03:51 | 26.96463 | 100.58462 | 15490 ft | 276 kts | 199° |
| 2026-05-04 03:52 | 26.93068 | 100.56877 | 15211 ft | 255 kts | 230° |
| 2026-05-04 03:52 | 26.92090 | 100.54671 | 15033 ft | 245 kts | 262° |
| 2026-05-04 03:52 | 26.92076 | 100.52781 | 14790 ft | 243 kts | 281° |
| 2026-05-04 03:52 | 26.92498 | 100.50942 | 14583 ft | 244 kts | 287° |
| 2026-05-04 03:53 | 26.93120 | 100.49172 | 14318 ft | 245 kts | 298° |
| 2026-05-04 03:53 | 26.94066 | 100.47578 | 14070 ft | 247 kts | 308° |
| 2026-05-04 03:53 | 26.95204 | 100.46148 | 13800 ft | 245 kts | 313° |
| 2026-05-04 03:53 | 26.96202 | 100.44661 | 13477 ft | 239 kts | 296° |
| 2026-05-04 03:54 | 26.96758 | 100.42943 | 13236 ft | 231 kts | 283° |
| 2026-05-04 03:54 | 26.96988 | 100.41185 | 13001 ft | 226 kts | 274° |
| 2026-05-04 03:54 | 26.96930 | 100.39444 | 12738 ft | 222 kts | 261° |
| 2026-05-04 03:54 | 26.96572 | 100.37774 | 12543 ft | 219 kts | 252° |
| 2026-05-04 03:55 | 26.95962 | 100.36213 | 12310 ft | 219 kts | 242° |
| 2026-05-04 03:55 | 26.95108 | 100.34811 | 12100 ft | 217 kts | 231° |
| 2026-05-04 03:55 | 26.94063 | 100.33623 | 11871 ft | 211 kts | 222° |
| 2026-05-04 03:55 | 26.92985 | 100.32578 | 11680 ft | 206 kts | 223° |
| 2026-05-04 03:56 | 26.91912 | 100.31520 | 11464 ft | 205 kts | 223° |
| 2026-05-04 03:56 | 26.90846 | 100.30467 | 11245 ft | 204 kts | 223° |
| 2026-05-04 03:56 | 26.89746 | 100.29470 | 11051 ft | 203 kts | 214° |
| 2026-05-04 03:56 | 26.88480 | 100.28786 | 10828 ft | 201 kts | 199° |
| 2026-05-04 03:57 | 26.87129 | 100.28492 | 10608 ft | 196 kts | 184° |
| 2026-05-04 03:57 | 26.85779 | 100.28574 | 10425 ft | 194 kts | 170° |
| 2026-05-04 03:57 | 26.84912 | 100.28815 | 10300 ft | 194 kts | 162° |
| 2026-05-04 03:57 | 26.83693 | 100.29273 | 10117 ft | 195 kts | 165° |
| 2026-05-04 03:58 | 26.81050 | 100.29118 | 9687 ft | 192 kts | 200° |
| 2026-05-04 03:58 | 26.79797 | 100.28636 | 9469 ft | 188 kts | 198° |
| 2026-05-04 03:58 | 26.78590 | 100.28213 | 9252 ft | 176 kts | 197° |
| 2026-05-04 03:59 | 26.77450 | 100.27818 | 9067 ft | 172 kts | 198° |
| 2026-05-04 03:59 | 26.76308 | 100.27423 | 8820 ft | 170 kts | 197° |
| 2026-05-04 03:59 | 26.75194 | 100.27034 | 8609 ft | 165 kts | 197° |
| 2026-05-04 03:59 | 26.74106 | 100.26660 | 8382 ft | 162 kts | 197° |
| 2026-05-04 04:00 | 26.73012 | 100.26288 | 8163 ft | 165 kts | 197° |
| 2026-05-04 04:00 | 26.71936 | 100.25918 | 7966 ft | 163 kts | 197° |
| 2026-05-04 04:00 | 26.70848 | 100.25542 | 7750 ft | 164 kts | 197° |
| 2026-05-04 04:00 | 26.69755 | 100.25168 | 7556 ft | 165 kts | 197° |
| 2026-05-04 04:01 | 26.68660 | 100.24804 | 7363 ft | 162 kts | 197° |
| 2026-05-04 04:01 | 26.67730 | 100.24485 | 7357 ft | 110 kts | 197° |
| 2026-05-04 04:01 | 26.67213 | 100.24310 | 7360 ft | 32 kts | 197° |